»·PEaware :: N26292 KFXE-KEYW

N26292 :: KFXE-KEYW

FLIGHT INFORMATION

Flight Status: Arrived
Operator: Privately registered:
United States
More flights under this callsign
Pilot: Friedhelm S. (2894)
Aircraft: CESSNA 172 SKYHAWK
(C172)
More flights by this aircraft type
Origin: KFXE Ft Lauderdale Executive
United States
Destination: KEYW Key West Intl
United States
More flights between these airports :: More routes between these airports
Route: FAMIN MTH
File this flight plan on PilotEdge
Remarks:
Altitude:
(Current/Filed)
5,500ft
Speed:
(Current/Filed)
110kts
Departed: 08-Mar-18 05:01 AM
Arrived: 08-Mar-18 06:30 AM
Distance/Time
Traveled:
131nm/1:29
Distance/Time
To Go:
Arrived

Flight Plot

Page will automatically refresh every two minutes.

Flight plan parsing failed; only flown route is shown


Map Options




Map Legend


Flown Route
Filed Route
Departure Airport
Arrival Airport
Navaid (VOR, NDB)
Fix

Horizontal Profiles

Position Reports

Time Latitude Longitude Heading Altitude Ground
Speed
08-Mar-18 05:02 26.192968 -80.169084 40 7ft 0kts
08-Mar-18 05:03 26.192968 -80.169084 40 7ft 0kts
08-Mar-18 05:04 26.192968 -80.169084 40 7ft 0kts
08-Mar-18 05:05 26.193415 -80.167665 130 7ft 7kts
08-Mar-18 05:06 26.192270 -80.166074 129 7ft 7kts
08-Mar-18 05:07 26.191626 -80.164936 64 7ft 0kts
08-Mar-18 05:08 26.195971 -80.169916 308 164ft 69kts
08-Mar-18 05:09 26.210449 -80.190142 275 1086ft 83kts
08-Mar-18 05:10 26.189960 -80.209384 219 1858ft 102kts
08-Mar-18 05:11 26.167815 -80.228753 220 2726ft 97kts
08-Mar-18 05:12 26.147209 -80.247165 223 3505ft 106kts
08-Mar-18 05:13 26.127559 -80.266515 229 4419ft 89kts
08-Mar-18 05:14 26.111702 -80.287281 242 5192ft 86kts
08-Mar-18 05:15 26.094495 -80.310168 234 5528ft 104kts
08-Mar-18 05:16 26.076136 -80.333143 230 5415ft 97kts
08-Mar-18 05:17 26.058971 -80.354406 241 5423ft 87kts
08-Mar-18 05:18 26.046305 -80.377440 245 5442ft 86kts
08-Mar-18 05:19 26.034878 -80.400427 249 5514ft 83kts
08-Mar-18 05:20 26.024485 -80.424195 245 5519ft 87kts
08-Mar-18 05:21 26.009540 -80.445350 239 5555ft 88kts
08-Mar-18 05:22 25.993585 -80.466467 234 5550ft 90kts
08-Mar-18 05:23 25.976599 -80.487477 240 5507ft 92kts
08-Mar-18 05:24 25.961193 -80.509456 237 5496ft 93kts
08-Mar-18 05:25 25.944158 -80.530473 234 5534ft 90kts
08-Mar-18 05:26 25.926315 -80.550191 229 5560ft 91kts
08-Mar-18 05:27 25.905796 -80.567419 225 5581ft 93kts
08-Mar-18 05:28 25.883619 -80.584150 223 5512ft 95kts
08-Mar-18 05:29 25.861688 -80.600018 219 5490ft 94kts
08-Mar-18 05:30 25.840130 -80.615480 222 5513ft 90kts
08-Mar-18 05:31 25.818245 -80.631280 221 5481ft 97kts
08-Mar-18 05:32 25.797756 -80.649179 227 5543ft 93kts
08-Mar-18 05:33 25.778376 -80.668666 232 5562ft 93kts
08-Mar-18 05:34 25.758310 -80.689213 226 5450ft 100kts
08-Mar-18 05:35 25.736654 -80.707189 223 5512ft 94kts
08-Mar-18 05:36 25.715064 -80.724211 221 5538ft 97kts
08-Mar-18 05:37 25.693597 -80.742475 228 5513ft 97kts
08-Mar-18 05:38 25.673839 -80.762243 228 5524ft 96kts
08-Mar-18 05:39 25.654095 -80.782126 226 5518ft 97kts
08-Mar-18 05:40 25.633553 -80.800627 227 5565ft 94kts
08-Mar-18 05:41 25.615606 -80.821942 235 5552ft 95kts
08-Mar-18 05:42 25.593640 -80.839062 207 5478ft 105kts
08-Mar-18 05:43 25.565191 -80.847484 200 5427ft 104kts
08-Mar-18 05:44 25.537724 -80.855231 203 5476ft 101kts
08-Mar-18 05:45 25.510800 -80.863235 204 5524ft 101kts
08-Mar-18 05:46 25.483515 -80.871723 202 5526ft 103kts
08-Mar-18 05:47 25.455864 -80.879391 201 5537ft 102kts
08-Mar-18 05:48 25.429431 -80.889891 210 5523ft 103kts
08-Mar-18 05:49 25.402045 -80.900408 203 5505ft 106kts
08-Mar-18 05:50 25.373155 -80.908604 201 5512ft 108kts
08-Mar-18 05:51 25.343327 -80.915932 194 5509ft 112kts
08-Mar-18 05:52 25.311897 -80.919622 186 5501ft 115kts
08-Mar-18 05:53 25.280053 -80.922251 189 5508ft 114kts
08-Mar-18 05:54 25.249341 -80.930978 203 5502ft 114kts
08-Mar-18 05:55 25.219224 -80.941938 202 5516ft 115kts
08-Mar-18 05:56 25.187696 -80.950737 198 5512ft 117kts
08-Mar-18 05:57 25.155804 -80.958957 198 5521ft 118kts
08-Mar-18 05:58 25.124605 -80.970088 203 5520ft 119kts
08-Mar-18 05:59 25.093409 -80.982220 203 5532ft 118kts
08-Mar-18 06:00 25.062492 -80.994449 203 5540ft 118kts
08-Mar-18 06:01 25.031163 -81.005826 202 5542ft 119kts
08-Mar-18 06:02 24.998756 -81.014954 193 5498ft 122kts
08-Mar-18 06:03 24.965434 -81.020951 189 5489ft 119kts
08-Mar-18 06:04 24.932840 -81.028131 193 5487ft 118kts
08-Mar-18 06:05 24.900683 -81.036690 199 5459ft 119kts
08-Mar-18 06:06 24.868684 -81.045434 196 5441ft 118kts
08-Mar-18 06:07 24.836653 -81.053397 197 5438ft 118kts
08-Mar-18 06:08 24.805394 -81.062985 201 5472ft 116kts
08-Mar-18 06:09 24.775194 -81.075228 210 5489ft 115kts
08-Mar-18 06:10 24.745806 -81.089630 202 5496ft 116kts
08-Mar-18 06:11 24.717078 -81.104121 241 5397ft 110kts
08-Mar-18 06:12 24.705205 -81.134478 254 4804ft 107kts
08-Mar-18 06:13 24.692500 -81.164345 252 4235ft 103kts
08-Mar-18 06:14 24.681636 -81.193451 251 3624ft 103kts
08-Mar-18 06:15 24.670658 -81.222593 255 3082ft 102kts
08-Mar-18 06:16 24.660794 -81.252023 252 2678ft 102kts
08-Mar-18 06:17 24.654626 -81.277022 266 2515ft 101kts
08-Mar-18 06:18 24.654360 -81.307306 277 2384ft 97kts
08-Mar-18 06:19 24.653251 -81.336715 266 2359ft 96kts
08-Mar-18 06:20 24.650669 -81.370680 270 2343ft 95kts
08-Mar-18 06:21 24.648035 -81.394773 265 2334ft 95kts
08-Mar-18 06:22 24.641834 -81.423130 253 2322ft 96kts
08-Mar-18 06:23 24.628050 -81.454056 253 2306ft 96kts
08-Mar-18 06:24 24.620632 -81.476970 257 2301ft 94kts
08-Mar-18 06:25 24.611491 -81.504080 255 2294ft 94kts
08-Mar-18 06:26 24.602296 -81.531077 254 2287ft 94kts
08-Mar-18 06:27 24.591946 -81.557497 249 2285ft 94kts
08-Mar-18 06:28 24.580967 -81.583646 252 2285ft 93kts
08-Mar-18 06:29 24.571081 -81.609342 258 2153ft 87kts
08-Mar-18 06:30 24.566058 -81.634970 275 1812ft 83kts
08-Mar-18 06:31 24.564994 -81.657505 260 1444ft 71kts
08-Mar-18 06:32 24.559135 -81.678901 259 1042ft 72kts
08-Mar-18 06:33 24.555792 -81.698344 271 679ft 60kts
08-Mar-18 06:34 24.555648 -81.715947 274 370ft 53kts
08-Mar-18 06:35 24.556091 -81.732468 274 243ft 54kts
08-Mar-18 06:36 24.556187 -81.748794 274 84ft 53kts
08-Mar-18 06:37 24.556096 -81.761299 274 4ft 20kts
08-Mar-18 06:38 24.555056 -81.759299 91 4ft 18kts
08-Mar-18 06:39 24.554147 -81.754804 88 4ft 7kts
08-Mar-18 06:40 24.554144 -81.754329 88 4ft 0kts

Navigation Log

Ident Type
Flight plan parsing failed, navigation log unavailable